sensor_id;sensor_type;location;lat;lon;timestamp;P1;durP1;ratioP1;P2;durP2;ratioP2
1879;SDS011;49285;49.002;8.390;2023-01-26T00:00:05;21.87;;;13.63;;
1879;SDS011;49285;49.002;8.390;2023-01-26T00:02:31;23.87;;;14.33;;
1879;SDS011;49285;49.002;8.390;2023-01-26T00:04:57;23.30;;;14.60;;
1879;SDS011;49285;49.002;8.390;2023-01-26T00:07:22;24.47;;;14.70;;
1879;SDS011;49285;49.002;8.390;2023-01-26T00:09:48;27.67;;;15.63;;
1879;SDS011;49285;49.002;8.390;2023-01-26T00:12:13;24.27;;;14.97;;
1879;SDS011;49285;49.002;8.390;2023-01-26T00:14:39;27.20;;;15.20;;
1879;SDS011;49285;49.002;8.390;2023-01-26T00:17:14;21.70;;;14.30;;
1879;SDS011;49285;49.002;8.390;2023-01-26T00:19:41;24.73;;;15.70;;
1879;SDS011;49285;49.002;8.390;2023-01-26T00:22:06;24.67;;;15.10;;
1879;SDS011;49285;49.002;8.390;2023-01-26T00:24:32;22.17;;;15.07;;
1879;SDS011;49285;49.002;8.390;2023-01-26T00:26:57;20.63;;;13.07;;
1879;SDS011;49285;49.002;8.390;2023-01-26T00:29:23;23.27;;;15.13;;
1879;SDS011;49285;49.002;8.390;2023-01-26T00:31:48;22.23;;;13.70;;
1879;SDS011;49285;49.002;8.390;2023-01-26T00:34:14;22.67;;;13.40;;
1879;SDS011;49285;49.002;8.390;2023-01-26T00:36:39;25.43;;;14.10;;
1879;SDS011;49285;49.002;8.390;2023-01-26T00:39:05;21.70;;;13.60;;
1879;SDS011;49285;49.002;8.390;2023-01-26T00:41:30;19.20;;;13.20;;
1879;SDS011;49285;49.002;8.390;2023-01-26T00:44:14;21.67;;;14.13;;
1879;SDS011;49285;49.002;8.390;2023-01-26T00:46:40;24.23;;;13.37;;
1879;SDS011;49285;49.002;8.390;2023-01-26T00:49:05;22.70;;;14.43;;
1879;SDS011;49285;49.002;8.390;2023-01-26T00:51:31;20.90;;;13.80;;
1879;SDS011;49285;49.002;8.390;2023-01-26T00:53:56;22.60;;;13.70;;
1879;SDS011;49285;49.002;8.390;2023-01-26T00:56:22;25.27;;;15.40;;
1879;SDS011;49285;49.002;8.390;2023-01-26T00:58:47;20.70;;;13.70;;
1879;SDS011;49285;49.002;8.390;2023-01-26T01:01:13;21.90;;;13.93;;
1879;SDS011;49285;49.002;8.390;2023-01-26T01:03:39;23.10;;;13.63;;
1879;SDS011;49285;49.002;8.390;2023-01-26T01:06:04;22.37;;;13.33;;
1879;SDS011;49285;49.002;8.390;2023-01-26T01:08:30;21.13;;;13.33;;
1879;SDS011;49285;49.002;8.390;2023-01-26T01:11:05;25.10;;;13.90;;
1879;SDS011;49285;49.002;8.390;2023-01-26T01:13:32;22.47;;;13.27;;
1879;SDS011;49285;49.002;8.390;2023-01-26T01:15:58;20.07;;;12.83;;
1879;SDS011;49285;49.002;8.390;2023-01-26T01:18:24;23.30;;;13.93;;
1879;SDS011;49285;49.002;8.390;2023-01-26T01:20:50;26.60;;;14.87;;
1879;SDS011;49285;49.002;8.390;2023-01-26T01:23:15;26.17;;;14.23;;
1879;SDS011;49285;49.002;8.390;2023-01-26T01:25:41;26.17;;;14.00;;
1879;SDS011;49285;49.002;8.390;2023-01-26T01:28:06;24.70;;;14.47;;
1879;SDS011;49285;49.002;8.390;2023-01-26T01:30:32;21.60;;;13.10;;
1879;SDS011;49285;49.002;8.390;2023-01-26T01:32:57;22.10;;;13.40;;
1879;SDS011;49285;49.002;8.390;2023-01-26T01:35:23;26.93;;;16.30;;
1879;SDS011;49285;49.002;8.390;2023-01-26T01:37:49;23.70;;;15.30;;
1879;SDS011;49285;49.002;8.390;2023-01-26T01:40:14;22.10;;;14.07;;
1879;SDS011;49285;49.002;8.390;2023-01-26T01:42:47;21.40;;;13.70;;
1879;SDS011;49285;49.002;8.390;2023-01-26T01:47:51;24.50;;;14.20;;
1879;SDS011;49285;49.002;8.390;2023-01-26T01:50:19;23.40;;;13.83;;
1879;SDS011;49285;49.002;8.390;2023-01-26T01:52:45;24.77;;;14.57;;
1879;SDS011;49285;49.002;8.390;2023-01-26T01:55:11;23.43;;;14.37;;
1879;SDS011;49285;49.002;8.390;2023-01-26T01:57:47;22.97;;;15.10;;
1879;SDS011;49285;49.002;8.390;2023-01-26T02:00:20;24.97;;;14.40;;
1879;SDS011;49285;49.002;8.390;2023-01-26T02:02:49;21.20;;;13.70;;
1879;SDS011;49285;49.002;8.390;2023-01-26T02:05:39;22.80;;;14.17;;
1879;SDS011;49285;49.002;8.390;2023-01-26T02:08:15;22.00;;;13.90;;
1879;SDS011;49285;49.002;8.390;2023-01-26T02:10:44;24.10;;;14.63;;
1879;SDS011;49285;49.002;8.390;2023-01-26T02:13:12;25.57;;;14.17;;
1879;SDS011;49285;49.002;8.390;2023-01-26T02:15:40;25.67;;;14.30;;
1879;SDS011;49285;49.002;8.390;2023-01-26T02:18:06;24.43;;;14.60;;
1879;SDS011;49285;49.002;8.390;2023-01-26T02:20:44;24.50;;;14.87;;
1879;SDS011;49285;49.002;8.390;2023-01-26T02:28:29;26.07;;;14.90;;
1879;SDS011;49285;49.002;8.390;2023-01-26T02:30:55;23.80;;;15.20;;
1879;SDS011;49285;49.002;8.390;2023-01-26T02:33:22;27.17;;;14.60;;
1879;SDS011;49285;49.002;8.390;2023-01-26T02:35:50;28.20;;;14.97;;
1879;SDS011;49285;49.002;8.390;2023-01-26T02:38:16;30.77;;;14.93;;
1879;SDS011;49285;49.002;8.390;2023-01-26T02:40:47;26.70;;;15.43;;
1879;SDS011;49285;49.002;8.390;2023-01-26T02:43:20;28.27;;;15.13;;
1879;SDS011;49285;49.002;8.390;2023-01-26T02:45:47;24.83;;;15.60;;
1879;SDS011;49285;49.002;8.390;2023-01-26T02:48:12;26.80;;;15.93;;
1879;SDS011;49285;49.002;8.390;2023-01-26T02:50:38;26.10;;;14.23;;
1879;SDS011;49285;49.002;8.390;2023-01-26T02:53:03;24.53;;;14.40;;
1879;SDS011;49285;49.002;8.390;2023-01-26T02:55:29;28.97;;;16.13;;
1879;SDS011;49285;49.002;8.390;2023-01-26T02:57:59;23.80;;;14.00;;
1879;SDS011;49285;49.002;8.390;2023-01-26T03:00:27;23.33;;;14.43;;
1879;SDS011;49285;49.002;8.390;2023-01-26T03:02:55;28.30;;;16.83;;
1879;SDS011;49285;49.002;8.390;2023-01-26T03:05:23;30.83;;;17.40;;
1879;SDS011;49285;49.002;8.390;2023-01-26T03:07:50;30.30;;;16.50;;
1879;SDS011;49285;49.002;8.390;2023-01-26T03:10:15;27.17;;;15.00;;
1879;SDS011;49285;49.002;8.390;2023-01-26T03:12:42;27.93;;;16.37;;
1879;SDS011;49285;49.002;8.390;2023-01-26T03:15:08;30.10;;;17.00;;
1879;SDS011;49285;49.002;8.390;2023-01-26T03:17:59;27.33;;;16.60;;
1879;SDS011;49285;49.002;8.390;2023-01-26T03:20:54;27.43;;;16.30;;
1879;SDS011;49285;49.002;8.390;2023-01-26T03:23:39;27.37;;;15.77;;
1879;SDS011;49285;49.002;8.390;2023-01-26T03:26:23;27.73;;;16.00;;
1879;SDS011;49285;49.002;8.390;2023-01-26T03:29:07;26.80;;;14.80;;
1879;SDS011;49285;49.002;8.390;2023-01-26T03:31:32;27.57;;;16.17;;
1879;SDS011;49285;49.002;8.390;2023-01-26T03:33:58;29.13;;;16.80;;
1879;SDS011;49285;49.002;8.390;2023-01-26T03:36:23;27.67;;;16.63;;
1879;SDS011;49285;49.002;8.390;2023-01-26T03:38:49;28.53;;;17.00;;
1879;SDS011;49285;49.002;8.390;2023-01-26T03:41:14;27.03;;;16.23;;
1879;SDS011;49285;49.002;8.390;2023-01-26T03:43:58;27.57;;;15.53;;
1879;SDS011;49285;49.002;8.390;2023-01-26T03:46:43;25.70;;;14.10;;
1879;SDS011;49285;49.002;8.390;2023-01-26T03:49:26;28.57;;;15.53;;
1879;SDS011;49285;49.002;8.390;2023-01-26T03:52:11;24.90;;;14.43;;
1879;SDS011;49285;49.002;8.390;2023-01-26T03:54:55;28.70;;;15.80;;
1879;SDS011;49285;49.002;8.390;2023-01-26T03:57:39;32.07;;;15.33;;
1879;SDS011;49285;49.002;8.390;2023-01-26T04:00:05;26.50;;;14.80;;
1879;SDS011;49285;49.002;8.390;2023-01-26T04:02:31;32.07;;;15.47;;
1879;SDS011;49285;49.002;8.390;2023-01-26T04:05:15;26.67;;;15.90;;
1879;SDS011;49285;49.002;8.390;2023-01-26T04:08:02;28.77;;;15.13;;
1879;SDS011;49285;49.002;8.390;2023-01-26T04:11:07;27.60;;;16.60;;
1879;SDS011;49285;49.002;8.390;2023-01-26T04:13:33;27.33;;;15.43;;
1879;SDS011;49285;49.002;8.390;2023-01-26T04:16:17;25.90;;;14.57;;
1879;SDS011;49285;49.002;8.390;2023-01-26T04:19:01;28.40;;;16.70;;
1879;SDS011;49285;49.002;8.390;2023-01-26T04:21:45;28.93;;;13.93;;
1879;SDS011;49285;49.002;8.390;2023-01-26T04:24:11;28.80;;;15.97;;
1879;SDS011;49285;49.002;8.390;2023-01-26T04:26:40;28.50;;;15.23;;
1879;SDS011;49285;49.002;8.390;2023-01-26T04:29:07;27.23;;;14.77;;
1879;SDS011;49285;49.002;8.390;2023-01-26T04:31:35;29.37;;;14.80;;
1879;SDS011;49285;49.002;8.390;2023-01-26T04:34:02;29.57;;;16.40;;
1879;SDS011;49285;49.002;8.390;2023-01-26T04:36:29;30.07;;;17.60;;
1879;SDS011;49285;49.002;8.390;2023-01-26T04:38:55;36.13;;;16.80;;
1879;SDS011;49285;49.002;8.390;2023-01-26T04:41:21;34.40;;;19.00;;
1879;SDS011;49285;49.002;8.390;2023-01-26T04:43:47;36.90;;;20.90;;
1879;SDS011;49285;49.002;8.390;2023-01-26T04:46:12;33.60;;;18.60;;
1879;SDS011;49285;49.002;8.390;2023-01-26T04:48:38;33.90;;;19.57;;
1879;SDS011;49285;49.002;8.390;2023-01-26T04:51:05;34.43;;;20.17;;
1879;SDS011;49285;49.002;8.390;2023-01-26T04:53:32;37.07;;;19.17;;
1879;SDS011;49285;49.002;8.390;2023-01-26T04:55:58;41.40;;;19.90;;
1879;SDS011;49285;49.002;8.390;2023-01-26T04:58:24;37.87;;;20.57;;
1879;SDS011;49285;49.002;8.390;2023-01-26T05:00:50;41.37;;;19.17;;
1879;SDS011;49285;49.002;8.390;2023-01-26T05:03:17;40.90;;;20.70;;
1879;SDS011;49285;49.002;8.390;2023-01-26T05:05:43;42.23;;;20.00;;
1879;SDS011;49285;49.002;8.390;2023-01-26T05:08:09;37.23;;;20.30;;
1879;SDS011;49285;49.002;8.390;2023-01-26T05:10:35;42.77;;;20.50;;
1879;SDS011;49285;49.002;8.390;2023-01-26T05:13:00;42.33;;;21.80;;
1879;SDS011;49285;49.002;8.390;2023-01-26T05:15:26;40.13;;;19.93;;
1879;SDS011;49285;49.002;8.390;2023-01-26T05:17:51;34.37;;;18.47;;
1879;SDS011;49285;49.002;8.390;2023-01-26T05:20:17;38.73;;;19.60;;
1879;SDS011;49285;49.002;8.390;2023-01-26T05:22:43;39.50;;;20.53;;
1879;SDS011;49285;49.002;8.390;2023-01-26T05:25:09;32.87;;;18.07;;
1879;SDS011;49285;49.002;8.390;2023-01-26T05:27:35;35.07;;;17.10;;
1879;SDS011;49285;49.002;8.390;2023-01-26T05:30:01;42.40;;;21.50;;
1879;SDS011;49285;49.002;8.390;2023-01-26T05:32:27;42.00;;;21.97;;
1879;SDS011;49285;49.002;8.390;2023-01-26T05:34:54;41.60;;;22.90;;
1879;SDS011;49285;49.002;8.390;2023-01-26T05:37:21;35.33;;;18.10;;
1879;SDS011;49285;49.002;8.390;2023-01-26T05:39:48;74.40;;;37.13;;
1879;SDS011;49285;49.002;8.390;2023-01-26T05:42:14;40.10;;;21.90;;
1879;SDS011;49285;49.002;8.390;2023-01-26T05:44:39;37.90;;;20.50;;
1879;SDS011;49285;49.002;8.390;2023-01-26T05:47:05;30.40;;;17.70;;
1879;SDS011;49285;49.002;8.390;2023-01-26T05:49:30;43.37;;;21.90;;
1879;SDS011;49285;49.002;8.390;2023-01-26T05:51:56;29.20;;;16.27;;
1879;SDS011;49285;49.002;8.390;2023-01-26T05:54:22;35.90;;;18.93;;
1879;SDS011;49285;49.002;8.390;2023-01-26T05:56:48;31.63;;;17.17;;
1879;SDS011;49285;49.002;8.390;2023-01-26T05:59:13;28.07;;;15.80;;
1879;SDS011;49285;49.002;8.390;2023-01-26T06:01:39;28.63;;;15.93;;
1879;SDS011;49285;49.002;8.390;2023-01-26T06:04:05;29.30;;;15.07;;
1879;SDS011;49285;49.002;8.390;2023-01-26T06:06:30;30.23;;;15.17;;
1879;SDS011;49285;49.002;8.390;2023-01-26T06:08:56;29.87;;;15.77;;
1879;SDS011;49285;49.002;8.390;2023-01-26T06:11:23;29.73;;;14.40;;
1879;SDS011;49285;49.002;8.390;2023-01-26T06:13:48;25.70;;;14.87;;
1879;SDS011;49285;49.002;8.390;2023-01-26T06:16:14;30.23;;;16.47;;
1879;SDS011;49285;49.002;8.390;2023-01-26T06:18:39;27.83;;;14.43;;
1879;SDS011;49285;49.002;8.390;2023-01-26T06:21:05;31.30;;;15.83;;
1879;SDS011;49285;49.002;8.390;2023-01-26T06:23:30;28.03;;;14.87;;
1879;SDS011;49285;49.002;8.390;2023-01-26T06:25:59;29.90;;;14.30;;
1879;SDS011;49285;49.002;8.390;2023-01-26T06:28:26;31.70;;;16.87;;
1879;SDS011;49285;49.002;8.390;2023-01-26T06:30:57;27.00;;;16.10;;
1879;SDS011;49285;49.002;8.390;2023-01-26T06:33:24;32.87;;;16.20;;
1879;SDS011;49285;49.002;8.390;2023-01-26T06:35:49;29.03;;;15.57;;
1879;SDS011;49285;49.002;8.390;2023-01-26T06:38:16;27.23;;;16.20;;
1879;SDS011;49285;49.002;8.390;2023-01-26T06:40:41;27.93;;;15.10;;
1879;SDS011;49285;49.002;8.390;2023-01-26T06:43:07;27.50;;;16.23;;
1879;SDS011;49285;49.002;8.390;2023-01-26T06:45:32;28.20;;;15.43;;
1879;SDS011;49285;49.002;8.390;2023-01-26T06:47:58;27.63;;;16.20;;
1879;SDS011;49285;49.002;8.390;2023-01-26T06:50:24;28.27;;;15.90;;
1879;SDS011;49285;49.002;8.390;2023-01-26T06:52:55;30.07;;;16.00;;
1879;SDS011;49285;49.002;8.390;2023-01-26T06:55:36;28.50;;;15.30;;
1879;SDS011;49285;49.002;8.390;2023-01-26T06:58:02;28.13;;;15.77;;
1879;SDS011;49285;49.002;8.390;2023-01-26T07:00:28;32.87;;;15.60;;
1879;SDS011;49285;49.002;8.390;2023-01-26T07:02:53;29.03;;;16.73;;
1879;SDS011;49285;49.002;8.390;2023-01-26T07:05:19;33.43;;;16.93;;
1879;SDS011;49285;49.002;8.390;2023-01-26T07:07:44;31.57;;;16.00;;
1879;SDS011;49285;49.002;8.390;2023-01-26T07:10:10;29.30;;;15.30;;
1879;SDS011;49285;49.002;8.390;2023-01-26T07:12:37;27.47;;;15.73;;
1879;SDS011;49285;49.002;8.390;2023-01-26T07:15:06;26.10;;;16.67;;
1879;SDS011;49285;49.002;8.390;2023-01-26T07:17:32;33.83;;;15.63;;
1879;SDS011;49285;49.002;8.390;2023-01-26T07:19:57;32.27;;;15.00;;
1879;SDS011;49285;49.002;8.390;2023-01-26T07:22:23;37.23;;;17.90;;
1879;SDS011;49285;49.002;8.390;2023-01-26T07:24:48;29.97;;;15.23;;
1879;SDS011;49285;49.002;8.390;2023-01-26T07:27:14;34.60;;;17.00;;
1879;SDS011;49285;49.002;8.390;2023-01-26T07:29:39;33.23;;;17.00;;
1879;SDS011;49285;49.002;8.390;2023-01-26T07:32:05;34.33;;;16.00;;
1879;SDS011;49285;49.002;8.390;2023-01-26T07:34:31;28.80;;;14.53;;
1879;SDS011;49285;49.002;8.390;2023-01-26T07:36:57;31.83;;;16.10;;
1879;SDS011;49285;49.002;8.390;2023-01-26T07:39:23;30.90;;;16.67;;
1879;SDS011;49285;49.002;8.390;2023-01-26T07:41:48;27.30;;;15.83;;
1879;SDS011;49285;49.002;8.390;2023-01-26T07:44:15;34.17;;;17.57;;
1879;SDS011;49285;49.002;8.390;2023-01-26T07:46:40;34.53;;;16.37;;
1879;SDS011;49285;49.002;8.390;2023-01-26T07:49:06;31.83;;;16.40;;
1879;SDS011;49285;49.002;8.390;2023-01-26T07:51:41;29.80;;;16.73;;
1879;SDS011;49285;49.002;8.390;2023-01-26T07:54:12;38.60;;;17.03;;
1879;SDS011;49285;49.002;8.390;2023-01-26T07:56:38;31.43;;;16.10;;
1879;SDS011;49285;49.002;8.390;2023-01-26T07:59:03;35.07;;;16.13;;
1879;SDS011;49285;49.002;8.390;2023-01-26T08:01:29;33.73;;;17.07;;
1879;SDS011;49285;49.002;8.390;2023-01-26T08:03:55;30.03;;;15.50;;
1879;SDS011;49285;49.002;8.390;2023-01-26T08:06:21;37.37;;;16.43;;
1879;SDS011;49285;49.002;8.390;2023-01-26T08:08:47;32.70;;;17.03;;
1879;SDS011;49285;49.002;8.390;2023-01-26T08:11:18;33.87;;;16.57;;
1879;SDS011;49285;49.002;8.390;2023-01-26T08:13:46;24.40;;;14.93;;
1879;SDS011;49285;49.002;8.390;2023-01-26T08:16:12;27.53;;;15.73;;
1879;SDS011;49285;49.002;8.390;2023-01-26T08:18:38;31.60;;;16.00;;
1879;SDS011;49285;49.002;8.390;2023-01-26T08:21:09;37.93;;;15.87;;
1879;SDS011;49285;49.002;8.390;2023-01-26T08:23:35;32.57;;;16.17;;
1879;SDS011;49285;49.002;8.390;2023-01-26T08:26:02;23.83;;;14.40;;
1879;SDS011;49285;49.002;8.390;2023-01-26T08:28:29;33.27;;;14.63;;
1879;SDS011;49285;49.002;8.390;2023-01-26T08:30:55;27.87;;;15.77;;
1879;SDS011;49285;49.002;8.390;2023-01-26T08:33:26;29.50;;;15.50;;
1879;SDS011;49285;49.002;8.390;2023-01-26T08:35:52;28.47;;;16.40;;
1879;SDS011;49285;49.002;8.390;2023-01-26T08:38:17;28.57;;;14.90;;
1879;SDS011;49285;49.002;8.390;2023-01-26T08:40:43;29.07;;;15.03;;
1879;SDS011;49285;49.002;8.390;2023-01-26T08:43:08;27.20;;;14.57;;
1879;SDS011;49285;49.002;8.390;2023-01-26T08:45:34;29.00;;;14.60;;
1879;SDS011;49285;49.002;8.390;2023-01-26T08:47:59;29.90;;;14.80;;
1879;SDS011;49285;49.002;8.390;2023-01-26T08:50:25;28.83;;;16.57;;
1879;SDS011;49285;49.002;8.390;2023-01-26T08:52:51;26.17;;;14.93;;
1879;SDS011;49285;49.002;8.390;2023-01-26T08:55:18;26.77;;;14.60;;
1879;SDS011;49285;49.002;8.390;2023-01-26T08:57:44;21.13;;;11.70;;
1879;SDS011;49285;49.002;8.390;2023-01-26T09:00:11;25.90;;;13.90;;
1879;SDS011;49285;49.002;8.390;2023-01-26T09:02:37;23.00;;;13.20;;
1879;SDS011;49285;49.002;8.390;2023-01-26T09:05:03;28.83;;;15.07;;
1879;SDS011;49285;49.002;8.390;2023-01-26T09:07:28;29.97;;;14.90;;
1879;SDS011;49285;49.002;8.390;2023-01-26T09:09:54;25.13;;;14.40;;
1879;SDS011;49285;49.002;8.390;2023-01-26T09:12:19;22.30;;;12.30;;
1879;SDS011;49285;49.002;8.390;2023-01-26T09:14:45;26.10;;;14.43;;
1879;SDS011;49285;49.002;8.390;2023-01-26T09:17:10;27.60;;;15.23;;
1879;SDS011;49285;49.002;8.390;2023-01-26T09:19:36;25.70;;;13.03;;
1879;SDS011;49285;49.002;8.390;2023-01-26T09:22:02;24.83;;;13.50;;
1879;SDS011;49285;49.002;8.390;2023-01-26T09:24:28;24.60;;;13.93;;
1879;SDS011;49285;49.002;8.390;2023-01-26T09:26:54;25.13;;;13.70;;
1879;SDS011;49285;49.002;8.390;2023-01-26T09:29:19;24.40;;;13.20;;
1879;SDS011;49285;49.002;8.390;2023-01-26T09:31:45;23.17;;;11.97;;
1879;SDS011;49285;49.002;8.390;2023-01-26T09:34:11;25.50;;;13.50;;
1879;SDS011;49285;49.002;8.390;2023-01-26T09:36:36;26.07;;;12.00;;
1879;SDS011;49285;49.002;8.390;2023-01-26T09:39:02;17.33;;;10.67;;
1879;SDS011;49285;49.002;8.390;2023-01-26T09:44:07;16.30;;;10.20;;
1879;SDS011;49285;49.002;8.390;2023-01-26T09:49:12;18.57;;;9.80;;
1879;SDS011;49285;49.002;8.390;2023-01-26T09:51:52;34.70;;;20.43;;
1879;SDS011;49285;49.002;8.390;2023-01-26T09:57:17;22.30;;;12.03;;
1879;SDS011;49285;49.002;8.390;2023-01-26T10:02:34;25.60;;;14.43;;
1879;SDS011;49285;49.002;8.390;2023-01-26T10:07:59;24.13;;;14.03;;
1879;SDS011;49285;49.002;8.390;2023-01-26T10:10:28;22.43;;;12.50;;
1879;SDS011;49285;49.002;8.390;2023-01-26T10:12:58;18.93;;;12.57;;
1879;SDS011;49285;49.002;8.390;2023-01-26T10:18:06;21.77;;;12.53;;
1879;SDS011;49285;49.002;8.390;2023-01-26T10:20:48;20.33;;;12.50;;
1879;SDS011;49285;49.002;8.390;2023-01-26T10:25:47;19.03;;;12.47;;
1879;SDS011;49285;49.002;8.390;2023-01-26T10:28:32;20.27;;;11.87;;
1879;SDS011;49285;49.002;8.390;2023-01-26T10:30:59;17.50;;;10.80;;
1879;SDS011;49285;49.002;8.390;2023-01-26T10:33:32;20.80;;;12.77;;
1879;SDS011;49285;49.002;8.390;2023-01-26T10:36:03;16.47;;;10.37;;
1879;SDS011;49285;49.002;8.390;2023-01-26T10:41:04;16.57;;;10.33;;
1879;SDS011;49285;49.002;8.390;2023-01-26T10:43:33;18.13;;;11.60;;
1879;SDS011;49285;49.002;8.390;2023-01-26T10:46:04;15.80;;;9.67;;
1879;SDS011;49285;49.002;8.390;2023-01-26T10:48:29;18.30;;;10.07;;
1879;SDS011;49285;49.002;8.390;2023-01-26T10:50:55;17.47;;;10.53;;
1879;SDS011;49285;49.002;8.390;2023-01-26T10:53:45;19.23;;;11.10;;
1879;SDS011;49285;49.002;8.390;2023-01-26T10:56:11;16.00;;;10.37;;
1879;SDS011;49285;49.002;8.390;2023-01-26T10:58:41;17.63;;;10.50;;
1879;SDS011;49285;49.002;8.390;2023-01-26T11:01:14;16.10;;;9.87;;
1879;SDS011;49285;49.002;8.390;2023-01-26T11:04:01;13.73;;;9.90;;
1879;SDS011;49285;49.002;8.390;2023-01-26T11:06:30;13.60;;;9.93;;
1879;SDS011;49285;49.002;8.390;2023-01-26T11:09:09;12.90;;;8.80;;
1879;SDS011;49285;49.002;8.390;2023-01-26T11:11:56;14.33;;;9.50;;
1879;SDS011;49285;49.002;8.390;2023-01-26T11:14:26;29.93;;;10.50;;
1879;SDS011;49285;49.002;8.390;2023-01-26T11:16:56;15.37;;;9.23;;
1879;SDS011;49285;49.002;8.390;2023-01-26T11:21:59;15.50;;;10.43;;
1879;SDS011;49285;49.002;8.390;2023-01-26T11:38:04;10.77;;;8.10;;
1879;SDS011;49285;49.002;8.390;2023-01-26T11:40:44;15.20;;;8.50;;
1879;SDS011;49285;49.002;8.390;2023-01-26T11:43:19;11.50;;;8.37;;
1879;SDS011;49285;49.002;8.390;2023-01-26T11:46:02;13.20;;;9.40;;
1879;SDS011;49285;49.002;8.390;2023-01-26T11:48:45;11.63;;;8.30;;
1879;SDS011;49285;49.002;8.390;2023-01-26T11:51:26;14.10;;;8.67;;
1879;SDS011;49285;49.002;8.390;2023-01-26T12:00:46;13.50;;;8.67;;
1879;SDS011;49285;49.002;8.390;2023-01-26T12:06:17;11.80;;;7.50;;
1879;SDS011;49285;49.002;8.390;2023-01-26T12:09:09;9.97;;;7.73;;
1879;SDS011;49285;49.002;8.390;2023-01-26T12:11:46;9.60;;;7.13;;
1879;SDS011;49285;49.002;8.390;2023-01-26T12:21:59;10.40;;;7.23;;
1879;SDS011;49285;49.002;8.390;2023-01-26T12:24:35;10.17;;;7.27;;
1879;SDS011;49285;49.002;8.390;2023-01-26T12:27:07;11.07;;;8.20;;
1879;SDS011;49285;49.002;8.390;2023-01-26T12:29:45;14.43;;;7.40;;
1879;SDS011;49285;49.002;8.390;2023-01-26T12:32:15;10.20;;;7.60;;
1879;SDS011;49285;49.002;8.390;2023-01-26T12:34:41;10.23;;;7.10;;
1879;SDS011;49285;49.002;8.390;2023-01-26T12:45:41;10.97;;;7.03;;
1879;SDS011;49285;49.002;8.390;2023-01-26T12:48:12;9.20;;;6.63;;
1879;SDS011;49285;49.002;8.390;2023-01-26T12:50:45;12.60;;;8.10;;
1879;SDS011;49285;49.002;8.390;2023-01-26T12:53:23;12.10;;;7.73;;
1879;SDS011;49285;49.002;8.390;2023-01-26T12:58:38;9.63;;;7.00;;
1879;SDS011;49285;49.002;8.390;2023-01-26T13:01:07;10.17;;;7.47;;
1879;SDS011;49285;49.002;8.390;2023-01-26T13:03:49;10.23;;;7.33;;
1879;SDS011;49285;49.002;8.390;2023-01-26T13:06:21;10.90;;;7.63;;
1879;SDS011;49285;49.002;8.390;2023-01-26T13:24:47;8.80;;;6.53;;
1879;SDS011;49285;49.002;8.390;2023-01-26T13:30:02;14.37;;;8.20;;
1879;SDS011;49285;49.002;8.390;2023-01-26T13:35:17;11.67;;;7.13;;
1879;SDS011;49285;49.002;8.390;2023-01-26T13:37:53;10.80;;;7.10;;
1879;SDS011;49285;49.002;8.390;2023-01-26T13:40:32;11.30;;;7.67;;
1879;SDS011;49285;49.002;8.390;2023-01-26T13:43:14;10.93;;;7.10;;
1879;SDS011;49285;49.002;8.390;2023-01-26T13:48:55;9.60;;;6.90;;
1879;SDS011;49285;49.002;8.390;2023-01-26T13:51:31;8.40;;;7.03;;
1879;SDS011;49285;49.002;8.390;2023-01-26T13:56:34;8.80;;;7.57;;
1879;SDS011;49285;49.002;8.390;2023-01-26T14:01:49;9.33;;;7.40;;
1879;SDS011;49285;49.002;8.390;2023-01-26T14:04:18;10.17;;;7.73;;
1879;SDS011;49285;49.002;8.390;2023-01-26T14:06:47;10.70;;;7.60;;
1879;SDS011;49285;49.002;8.390;2023-01-26T14:09:20;9.53;;;6.97;;
1879;SDS011;49285;49.002;8.390;2023-01-26T14:11:47;9.60;;;8.43;;
1879;SDS011;49285;49.002;8.390;2023-01-26T14:14:28;8.33;;;7.27;;
1879;SDS011;49285;49.002;8.390;2023-01-26T14:16:58;10.43;;;7.07;;
1879;SDS011;49285;49.002;8.390;2023-01-26T14:19:26;8.17;;;6.80;;
1879;SDS011;49285;49.002;8.390;2023-01-26T14:21:53;9.40;;;6.87;;
1879;SDS011;49285;49.002;8.390;2023-01-26T14:24:31;8.93;;;6.90;;
1879;SDS011;49285;49.002;8.390;2023-01-26T14:26:58;8.60;;;6.60;;
1879;SDS011;49285;49.002;8.390;2023-01-26T14:29:26;8.67;;;7.40;;
1879;SDS011;49285;49.002;8.390;2023-01-26T14:31:54;9.43;;;6.77;;
1879;SDS011;49285;49.002;8.390;2023-01-26T14:34:22;9.20;;;6.90;;
1879;SDS011;49285;49.002;8.390;2023-01-26T14:39:37;8.80;;;6.60;;
1879;SDS011;49285;49.002;8.390;2023-01-26T14:42:03;15.20;;;7.60;;
1879;SDS011;49285;49.002;8.390;2023-01-26T14:44:29;10.47;;;7.97;;
1879;SDS011;49285;49.002;8.390;2023-01-26T14:46:56;9.30;;;7.13;;
1879;SDS011;49285;49.002;8.390;2023-01-26T14:49:42;9.90;;;6.80;;
1879;SDS011;49285;49.002;8.390;2023-01-26T14:52:26;9.57;;;7.63;;
1879;SDS011;49285;49.002;8.390;2023-01-26T14:54:56;13.80;;;8.53;;
1879;SDS011;49285;49.002;8.390;2023-01-26T14:57:27;9.20;;;8.10;;
1879;SDS011;49285;49.002;8.390;2023-01-26T14:59:55;8.60;;;7.17;;
1879;SDS011;49285;49.002;8.390;2023-01-26T15:02:23;9.00;;;7.87;;
1879;SDS011;49285;49.002;8.390;2023-01-26T15:05:01;12.93;;;9.57;;
1879;SDS011;49285;49.002;8.390;2023-01-26T15:10:54;15.20;;;10.80;;
1879;SDS011;49285;49.002;8.390;2023-01-26T15:13:42;15.10;;;9.33;;
1879;SDS011;49285;49.002;8.390;2023-01-26T15:16:18;16.37;;;9.90;;
1879;SDS011;49285;49.002;8.390;2023-01-26T15:19:01;14.20;;;10.17;;
1879;SDS011;49285;49.002;8.390;2023-01-26T15:24:03;14.87;;;9.87;;
1879;SDS011;49285;49.002;8.390;2023-01-26T15:28:58;15.60;;;11.40;;
1879;SDS011;49285;49.002;8.390;2023-01-26T15:31:29;15.73;;;11.63;;
1879;SDS011;49285;49.002;8.390;2023-01-26T15:33:58;14.20;;;10.90;;
1879;SDS011;49285;49.002;8.390;2023-01-26T15:39:16;14.50;;;10.37;;
1879;SDS011;49285;49.002;8.390;2023-01-26T15:42:00;15.97;;;11.50;;
1879;SDS011;49285;49.002;8.390;2023-01-26T15:44:39;17.37;;;11.17;;
1879;SDS011;49285;49.002;8.390;2023-01-26T15:47:08;15.17;;;10.30;;
1879;SDS011;49285;49.002;8.390;2023-01-26T15:49:36;17.00;;;11.27;;
1879;SDS011;49285;49.002;8.390;2023-01-26T15:52:02;18.23;;;9.97;;
1879;SDS011;49285;49.002;8.390;2023-01-26T15:54:33;15.63;;;11.10;;
1879;SDS011;49285;49.002;8.390;2023-01-26T15:56:58;12.27;;;9.30;;
1879;SDS011;49285;49.002;8.390;2023-01-26T15:59:24;15.30;;;10.80;;
1879;SDS011;49285;49.002;8.390;2023-01-26T16:01:50;14.07;;;10.20;;
1879;SDS011;49285;49.002;8.390;2023-01-26T16:04:15;16.50;;;10.63;;
1879;SDS011;49285;49.002;8.390;2023-01-26T16:06:41;16.97;;;11.20;;
1879;SDS011;49285;49.002;8.390;2023-01-26T16:09:07;14.20;;;9.70;;
1879;SDS011;49285;49.002;8.390;2023-01-26T16:11:34;14.07;;;9.80;;
1879;SDS011;49285;49.002;8.390;2023-01-26T16:14:03;15.67;;;10.47;;
1879;SDS011;49285;49.002;8.390;2023-01-26T16:16:29;14.30;;;9.57;;
1879;SDS011;49285;49.002;8.390;2023-01-26T16:18:56;15.63;;;10.13;;
1879;SDS011;49285;49.002;8.390;2023-01-26T16:21:22;15.90;;;11.07;;
1879;SDS011;49285;49.002;8.390;2023-01-26T16:23:49;13.37;;;9.77;;
1879;SDS011;49285;49.002;8.390;2023-01-26T16:26:16;18.13;;;10.50;;
1879;SDS011;49285;49.002;8.390;2023-01-26T16:28:43;14.53;;;10.37;;
1879;SDS011;49285;49.002;8.390;2023-01-26T16:31:13;15.60;;;10.90;;
1879;SDS011;49285;49.002;8.390;2023-01-26T16:33:47;18.87;;;10.57;;
1879;SDS011;49285;49.002;8.390;2023-01-26T16:36:14;15.97;;;11.13;;
1879;SDS011;49285;49.002;8.390;2023-01-26T16:38:41;17.87;;;11.20;;
1879;SDS011;49285;49.002;8.390;2023-01-26T16:43:44;17.53;;;12.17;;
1879;SDS011;49285;49.002;8.390;2023-01-26T16:46:10;16.07;;;11.03;;
1879;SDS011;49285;49.002;8.390;2023-01-26T16:48:37;20.70;;;12.03;;
1879;SDS011;49285;49.002;8.390;2023-01-26T16:51:10;17.97;;;11.43;;